createdAt,value
2023-02-15T00:00:34.637Z,2.30
2023-02-15T00:01:33.008Z,2.60
2023-02-15T00:02:34.690Z,2.70
2023-02-15T00:03:33.038Z,2.30
2023-02-15T00:04:34.729Z,2.40
2023-02-15T00:05:33.063Z,2.40
2023-02-15T00:06:34.786Z,2.50
2023-02-15T00:07:34.930Z,2.70
2023-02-15T00:08:34.106Z,2.90
2023-02-15T00:09:34.788Z,2.60
2023-02-15T00:10:34.982Z,2.50
2023-02-15T00:11:35.164Z,2.40
2023-02-15T00:12:34.855Z,2.40
2023-02-15T00:13:33.193Z,2.60
2023-02-15T00:14:33.204Z,2.80
2023-02-15T00:15:33.231Z,2.70
2023-02-15T00:16:33.276Z,2.70
2023-02-15T00:17:34.917Z,2.60
2023-02-15T00:18:33.265Z,2.50
2023-02-15T00:19:33.292Z,2.50
2023-02-15T00:20:33.306Z,2.60
2023-02-15T00:21:33.331Z,3.00
2023-02-15T00:22:35.008Z,2.80
2023-02-15T00:23:33.361Z,2.70
2023-02-15T00:24:33.382Z,2.30
2023-02-15T00:25:33.397Z,2.30
2023-02-15T00:26:33.413Z,2.80
2023-02-15T00:27:35.109Z,2.40
2023-02-15T00:28:33.446Z,2.50
2023-02-15T00:29:35.105Z,2.60
2023-02-15T00:30:35.335Z,2.70
2023-02-15T00:31:35.530Z,2.70
2023-02-15T00:32:35.167Z,2.60
2023-02-15T00:33:35.343Z,2.70
2023-02-15T00:34:34.515Z,2.90
2023-02-15T00:35:35.250Z,2.90
2023-02-15T00:36:35.441Z,2.90
2023-02-15T00:37:35.105Z,2.80
2023-02-15T00:38:35.305Z,3.00
2023-02-15T00:39:35.499Z,3.00
2023-02-15T00:40:35.186Z,2.90
2023-02-15T00:41:35.390Z,2.80
2023-02-15T00:42:35.556Z,3.00
2023-02-15T00:43:33.650Z,3.10
2023-02-15T00:44:33.673Z,2.30
2023-02-15T00:45:35.354Z,3.00
2023-02-15T00:46:35.553Z,2.80
2023-02-15T00:47:35.709Z,3.00
2023-02-15T00:48:35.412Z,3.10
2023-02-15T00:49:33.765Z,2.70
2023-02-15T00:50:33.792Z,2.80
2023-02-15T00:51:35.496Z,2.70
2023-02-15T00:52:33.827Z,2.80
2023-02-15T00:53:33.831Z,2.80
2023-02-15T00:54:33.854Z,2.70
2023-02-15T00:55:33.852Z,3.00
2023-02-15T00:56:35.535Z,3.00
2023-02-15T00:57:33.896Z,3.00
2023-02-15T00:58:33.902Z,3.10
2023-02-15T00:59:33.907Z,2.70
2023-02-15T01:00:33.931Z,3.10
2023-02-15T01:01:35.648Z,3.00
2023-02-15T01:02:33.960Z,3.00
2023-02-15T01:03:33.978Z,2.80
2023-02-15T01:04:34.057Z,3.00
2023-02-15T01:05:34.008Z,3.10
2023-02-15T01:06:35.692Z,3.00
2023-02-15T01:07:34.024Z,3.00
2023-02-15T01:08:35.707Z,2.80
2023-02-15T01:09:34.060Z,3.00
2023-02-15T01:10:34.068Z,3.00
2023-02-15T01:11:34.082Z,3.20
2023-02-15T01:12:35.756Z,3.10
2023-02-15T01:13:34.099Z,2.90
2023-02-15T01:14:34.117Z,2.60
2023-02-15T01:15:34.171Z,2.20
2023-02-15T01:16:34.165Z,2.70
2023-02-15T01:17:35.842Z,2.60
2023-02-15T01:18:34.174Z,2.30
2023-02-15T01:19:34.184Z,2.20
2023-02-15T01:20:35.106Z,2.60
2023-02-15T01:21:35.912Z,2.40
2023-02-15T01:22:34.287Z,2.20
2023-02-15T01:23:34.232Z,2.70
2023-02-15T01:24:35.921Z,2.70
2023-02-15T01:25:34.257Z,2.30
2023-02-15T01:26:34.300Z,2.50
2023-02-15T01:27:34.281Z,2.60
2023-02-15T01:28:34.308Z,2.30
2023-02-15T01:29:35.987Z,2.70
2023-02-15T01:30:34.355Z,2.40
2023-02-15T01:31:34.434Z,2.30
2023-02-15T01:32:36.036Z,2.60
2023-02-15T01:33:34.382Z,2.70
2023-02-15T01:34:36.087Z,2.70
2023-02-15T01:35:34.400Z,2.80
2023-02-15T01:36:34.432Z,2.50
2023-02-15T01:37:36.112Z,2.80
2023-02-15T01:38:34.466Z,3.00
2023-02-15T01:39:34.481Z,2.70
2023-02-15T01:40:34.477Z,2.80
2023-02-15T01:41:34.486Z,2.20
2023-02-15T01:42:36.179Z,2.30
2023-02-15T01:43:34.516Z,2.90
2023-02-15T01:44:36.211Z,2.60
2023-02-15T01:45:34.549Z,2.40
2023-02-15T01:46:36.289Z,2.60
2023-02-15T01:47:36.426Z,2.60
2023-02-15T01:48:34.606Z,2.60
2023-02-15T01:49:36.316Z,2.40
2023-02-15T01:50:36.506Z,2.80
2023-02-15T01:51:34.678Z,2.60
2023-02-15T01:52:36.325Z,2.30
2023-02-15T01:53:34.701Z,2.40
2023-02-15T01:54:34.743Z,2.30
2023-02-15T01:55:34.712Z,2.30
2023-02-15T01:56:34.743Z,2.50
2023-02-15T01:57:34.748Z,2.70
2023-02-15T01:58:36.466Z,2.30
2023-02-15T01:59:34.829Z,2.60
2023-02-15T02:00:34.818Z,2.70
2023-02-15T02:01:34.877Z,2.40
2023-02-15T02:02:34.866Z,2.50
2023-02-15T02:03:36.524Z,2.40
2023-02-15T02:04:34.890Z,2.50
2023-02-15T02:05:34.896Z,2.00
2023-02-15T02:06:34.893Z,2.30
2023-02-15T02:07:36.591Z,2.40
2023-02-15T02:08:36.777Z,2.40
2023-02-15T02:09:36.452Z,2.70
2023-02-15T02:10:36.652Z,2.80
2023-02-15T02:11:36.839Z,2.60
2023-02-15T02:12:36.523Z,2.40
2023-02-15T02:13:36.710Z,2.50
2023-02-15T02:14:36.887Z,2.70
2023-02-15T02:15:36.645Z,2.20
2023-02-15T02:16:36.788Z,2.90
2023-02-15T02:17:36.962Z,2.70
2023-02-15T02:18:36.646Z,2.80
2023-02-15T02:19:36.829Z,3.20
2023-02-15T02:20:37.010Z,3.30
2023-02-15T02:21:35.116Z,3.70
2023-02-15T02:22:36.796Z,3.60
2023-02-15T02:23:36.944Z,3.10
2023-02-15T02:24:37.157Z,3.20
2023-02-15T02:25:36.842Z,3.60
2023-02-15T02:26:37.042Z,3.70
2023-02-15T02:27:37.741Z,4.10
2023-02-15T02:28:36.919Z,3.70
2023-02-15T02:29:37.110Z,4.10
2023-02-15T02:30:36.921Z,3.70
2023-02-15T02:31:37.082Z,3.90
2023-02-15T02:32:35.258Z,3.90
2023-02-15T02:33:36.949Z,4.10
2023-02-15T02:34:37.145Z,4.10
2023-02-15T02:35:37.313Z,4.10
2023-02-15T02:36:37.025Z,4.20
2023-02-15T02:37:37.199Z,4.70
2023-02-15T02:38:35.347Z,4.40
2023-02-15T02:39:35.363Z,4.10
2023-02-15T02:40:35.397Z,4.80
2023-02-15T02:41:37.063Z,4.80
2023-02-15T02:42:37.243Z,5.00
2023-02-15T02:43:37.404Z,4.90
2023-02-15T02:44:37.103Z,5.50
2023-02-15T02:45:37.302Z,5.60
2023-02-15T02:46:37.505Z,5.90
2023-02-15T02:47:37.164Z,6.40
2023-02-15T02:48:35.515Z,8.20
2023-02-15T02:49:35.528Z,11.10
2023-02-15T02:50:35.527Z,14.60
2023-02-15T02:51:35.559Z,18.10
2023-02-15T02:52:37.258Z,23.20
2023-02-15T02:53:36.485Z,19.10
2023-02-15T02:54:35.584Z,26.00
2023-02-15T02:55:35.628Z,29.60
2023-02-15T02:56:35.612Z,24.40
2023-02-15T02:57:37.315Z,26.50
2023-02-15T02:58:35.643Z,14.40
2023-02-15T02:59:35.675Z,19.00
2023-02-15T03:00:35.674Z,18.90
2023-02-15T03:01:35.760Z,15.00
2023-02-15T03:02:37.415Z,10.90
2023-02-15T03:03:35.757Z,11.60
2023-02-15T03:04:37.417Z,8.80
2023-02-15T03:05:35.765Z,11.90
2023-02-15T03:06:36.702Z,17.60
2023-02-15T03:07:37.456Z,12.70
2023-02-15T03:08:35.798Z,7.30
2023-02-15T03:09:35.842Z,16.90
2023-02-15T03:10:35.829Z,15.70
2023-02-15T03:11:36.735Z,15.60
2023-02-15T03:12:37.590Z,27.50
2023-02-15T03:13:35.875Z,22.00
2023-02-15T03:14:37.565Z,19.80
2023-02-15T03:15:35.889Z,19.90
2023-02-15T03:16:36.114Z,15.20
2023-02-15T03:17:35.941Z,23.20
2023-02-15T03:18:35.940Z,43.10
2023-02-15T03:19:37.618Z,23.30
2023-02-15T03:20:35.972Z,61.10
2023-02-15T03:21:35.998Z,72.60
2023-02-15T03:22:35.990Z,28.80
2023-02-15T03:23:37.690Z,26.90
2023-02-15T03:24:36.022Z,27.10
2023-02-15T03:25:36.030Z,14.70
2023-02-15T03:26:37.865Z,19.10
2023-02-15T03:27:36.056Z,22.00
2023-02-15T03:28:37.751Z,23.10
2023-02-15T03:29:37.929Z,17.40
2023-02-15T03:30:36.102Z,15.60
2023-02-15T03:31:36.213Z,14.80
2023-02-15T03:32:36.134Z,14.00
2023-02-15T03:33:36.145Z,15.20
2023-02-15T03:34:37.834Z,26.20
2023-02-15T03:35:36.182Z,19.00
2023-02-15T03:36:36.194Z,16.30
2023-02-15T03:37:36.224Z,17.70
2023-02-15T03:38:36.236Z,16.00
2023-02-15T03:39:37.919Z,12.50
2023-02-15T03:40:36.268Z,13.20
2023-02-15T03:41:36.273Z,16.20
2023-02-15T03:42:36.276Z,12.40
2023-02-15T03:43:36.306Z,12.70
2023-02-15T03:44:36.331Z,13.90
2023-02-15T03:45:38.042Z,18.20
2023-02-15T03:46:38.320Z,23.50
2023-02-15T03:47:37.929Z,22.20
2023-02-15T03:48:38.117Z,19.80
2023-02-15T03:49:38.313Z,12.30
2023-02-15T03:50:39.002Z,14.10
2023-02-15T03:51:38.188Z,12.30
2023-02-15T03:52:38.381Z,15.20
2023-02-15T03:53:38.080Z,13.30
2023-02-15T03:54:38.276Z,15.40
2023-02-15T03:55:38.466Z,14.30
2023-02-15T03:56:38.161Z,17.10
2023-02-15T03:57:38.312Z,17.90
2023-02-15T03:58:38.500Z,10.80
2023-02-15T03:59:38.183Z,15.10
2023-02-15T04:00:38.373Z,19.80
2023-02-15T04:01:38.557Z,14.20
2023-02-15T04:02:38.274Z,12.60
2023-02-15T04:03:38.443Z,17.10
2023-02-15T04:04:38.625Z,10.90
2023-02-15T04:05:36.645Z,19.80
2023-02-15T04:06:36.664Z,17.40
2023-02-15T04:07:36.675Z,16.80
2023-02-15T04:08:36.685Z,14.80
2023-02-15T04:09:38.369Z,15.30
2023-02-15T04:10:36.713Z,18.60
2023-02-15T04:11:36.728Z,17.00
2023-02-15T04:12:36.731Z,17.90
2023-02-15T04:13:36.760Z,11.60
2023-02-15T04:14:36.766Z,34.30
2023-02-15T04:15:38.448Z,75.20
2023-02-15T04:16:36.819Z,31.20
2023-02-15T04:17:36.800Z,24.50
2023-02-15T04:18:36.813Z,25.10
2023-02-15T04:19:38.502Z,39.40
2023-02-15T04:20:38.690Z,30.10
2023-02-15T04:21:38.508Z,18.00
2023-02-15T04:22:38.710Z,16.40
2023-02-15T04:23:37.883Z,17.60
2023-02-15T04:24:38.554Z,16.30
2023-02-15T04:25:38.745Z,51.80
2023-02-15T04:26:38.934Z,17.30
2023-02-15T04:27:38.606Z,22.00
2023-02-15T04:28:38.797Z,97.60
2023-02-15T04:29:38.999Z,71.90
2023-02-15T04:30:38.678Z,43.30
2023-02-15T04:31:37.147Z,15.10
2023-02-15T04:32:38.707Z,13.60
2023-02-15T04:33:37.033Z,15.00
2023-02-15T04:34:37.044Z,11.80
2023-02-15T04:35:38.723Z,16.20
2023-02-15T04:36:37.077Z,14.60
2023-02-15T04:37:37.094Z,15.60
2023-02-15T04:38:37.098Z,83.60
2023-02-15T04:39:37.122Z,58.10
2023-02-15T04:40:38.806Z,15.50
2023-02-15T04:41:37.148Z,17.30
2023-02-15T04:42:37.146Z,16.00
2023-02-15T04:43:38.832Z,13.70
2023-02-15T04:44:37.164Z,10.10
2023-02-15T04:45:37.224Z,13.70
2023-02-15T04:46:37.196Z,10.40
2023-02-15T04:47:37.226Z,10.90
2023-02-15T04:48:37.230Z,12.70
2023-02-15T04:49:38.916Z,14.60
2023-02-15T04:50:39.106Z,22.90
2023-02-15T04:51:37.295Z,43.20
2023-02-15T04:52:37.291Z,12.50
2023-02-15T04:53:37.309Z,15.40
2023-02-15T04:54:37.337Z,14.80
2023-02-15T04:55:39.018Z,13.40
2023-02-15T04:56:37.348Z,13.20
2023-02-15T04:57:37.370Z,22.00
2023-02-15T04:58:37.375Z,20.30
2023-02-15T04:59:39.070Z,12.00
2023-02-15T05:00:39.265Z,14.40
2023-02-15T05:01:37.432Z,13.70
2023-02-15T05:02:37.435Z,12.20
2023-02-15T05:03:37.458Z,12.10
2023-02-15T05:04:37.524Z,15.40
2023-02-15T05:05:39.180Z,16.30
2023-02-15T05:06:37.485Z,12.30
2023-02-15T05:07:37.504Z,15.10
2023-02-15T05:08:37.529Z,12.00
2023-02-15T05:09:37.542Z,17.80
2023-02-15T05:10:39.238Z,21.90
2023-02-15T05:11:37.554Z,14.50
2023-02-15T05:12:39.263Z,16.20
2023-02-15T05:13:37.592Z,11.10
2023-02-15T05:14:39.263Z,13.20
2023-02-15T05:15:39.458Z,15.20
2023-02-15T05:16:39.169Z,25.60
2023-02-15T05:17:39.327Z,42.80
2023-02-15T05:18:39.532Z,42.50
2023-02-15T05:19:39.219Z,62.40
2023-02-15T05:20:39.358Z,37.70
2023-02-15T05:21:39.531Z,53.60
2023-02-15T05:22:39.704Z,17.00
2023-02-15T05:23:39.363Z,18.20
2023-02-15T05:24:37.740Z,10.30
2023-02-15T05:25:39.437Z,18.50
2023-02-15T05:26:39.622Z,24.90
2023-02-15T05:27:39.309Z,52.90
2023-02-15T05:28:39.490Z,32.50
2023-02-15T05:29:39.641Z,14.60
2023-02-15T05:30:40.025Z,14.30
2023-02-15T05:31:39.755Z,15.70
2023-02-15T05:32:39.868Z,13.50
2023-02-15T05:33:39.892Z,14.00
2023-02-15T05:34:39.553Z,15.80
2023-02-15T05:35:39.716Z,10.10
2023-02-15T05:36:39.872Z,13.60
2023-02-15T05:37:39.556Z,16.60
2023-02-15T05:38:39.732Z,14.00
2023-02-15T05:39:39.942Z,23.10
2023-02-15T05:40:39.578Z,13.60
2023-02-15T05:41:39.734Z,17.30
2023-02-15T05:42:39.959Z,10.70
2023-02-15T05:43:39.641Z,13.40
2023-02-15T05:44:39.812Z,9.80
2023-02-15T05:45:40.005Z,9.90
2023-02-15T05:46:39.652Z,17.20
2023-02-15T05:47:39.853Z,12.00
2023-02-15T05:48:40.058Z,4.40
2023-02-15T05:49:39.751Z,7.80
2023-02-15T05:50:39.986Z,9.10
2023-02-15T05:51:39.633Z,10.80
2023-02-15T05:52:39.826Z,62.50
2023-02-15T05:53:40.005Z,14.00
2023-02-15T05:54:39.691Z,10.20
2023-02-15T05:55:38.168Z,11.10
2023-02-15T05:56:39.847Z,10.40
2023-02-15T05:57:38.192Z,6.70
2023-02-15T05:58:39.865Z,6.60
2023-02-15T05:59:40.075Z,35.40
2023-02-15T06:00:39.755Z,39.10
2023-02-15T06:01:39.961Z,38.70
2023-02-15T06:02:40.175Z,30.10
2023-02-15T06:03:39.880Z,38.30
2023-02-15T06:04:40.008Z,32.20
2023-02-15T06:05:40.157Z,8.20
2023-02-15T06:06:39.855Z,10.00
2023-02-15T06:07:40.037Z,9.10
2023-02-15T06:08:38.358Z,11.80
2023-02-15T06:09:38.392Z,11.30
2023-02-15T06:10:38.395Z,12.40
2023-02-15T06:11:38.409Z,12.80
2023-02-15T06:12:40.104Z,29.70
2023-02-15T06:13:39.143Z,21.00
2023-02-15T06:14:38.477Z,7.40
2023-02-15T06:15:38.474Z,8.80
2023-02-15T06:16:38.478Z,10.50
2023-02-15T06:17:40.191Z,22.60
2023-02-15T06:18:38.497Z,28.70
2023-02-15T06:19:38.530Z,11.30
2023-02-15T06:20:38.528Z,14.90
2023-02-15T06:21:38.532Z,13.00
2023-02-15T06:22:40.220Z,16.60
2023-02-15T06:23:38.568Z,4.00
2023-02-15T06:24:38.589Z,11.80
2023-02-15T06:25:39.943Z,4.60
2023-02-15T06:26:38.601Z,17.10
2023-02-15T06:27:40.283Z,10.50
2023-02-15T06:28:38.650Z,4.90
2023-02-15T06:29:38.644Z,4.90
2023-02-15T06:30:38.659Z,9.10
2023-02-15T06:31:38.767Z,5.40
2023-02-15T06:32:40.369Z,4.20
2023-02-15T06:33:40.570Z,5.90
2023-02-15T06:34:38.725Z,5.10
2023-02-15T06:35:38.768Z,3.90
2023-02-15T06:36:38.769Z,9.80
2023-02-15T06:37:38.787Z,8.80
2023-02-15T06:38:40.485Z,5.50
2023-02-15T06:39:38.832Z,6.10
2023-02-15T06:40:38.869Z,11.60
2023-02-15T06:41:38.850Z,10.00
2023-02-15T06:42:38.857Z,8.90
2023-02-15T06:43:41.137Z,4.50
2023-02-15T06:44:38.888Z,9.60
2023-02-15T06:45:38.910Z,3.80
2023-02-15T06:46:39.939Z,14.10
2023-02-15T06:47:38.931Z,8.20
2023-02-15T06:48:40.604Z,8.10
2023-02-15T06:49:38.945Z,15.60
2023-02-15T06:50:38.950Z,8.30
2023-02-15T06:51:40.656Z,11.90
2023-02-15T06:52:38.979Z,11.50
2023-02-15T06:53:40.668Z,10.80
2023-02-15T06:54:39.010Z,5.60
2023-02-15T06:55:40.689Z,10.00
2023-02-15T06:56:39.018Z,13.90
2023-02-15T06:57:40.786Z,8.80
2023-02-15T06:58:40.949Z,5.20
2023-02-15T06:59:41.091Z,19.30
2023-02-15T07:00:39.094Z,40.20
2023-02-15T07:01:40.839Z,25.00
2023-02-15T07:02:39.906Z,16.10
2023-02-15T07:03:40.822Z,13.80
2023-02-15T07:04:41.053Z,15.70
2023-02-15T07:05:40.690Z,11.10
2023-02-15T07:06:40.834Z,15.10
2023-02-15T07:07:41.044Z,11.60
2023-02-15T07:08:40.718Z,12.00
2023-02-15T07:09:40.912Z,9.60
2023-02-15T07:10:41.114Z,6.90
2023-02-15T07:11:40.768Z,14.80
2023-02-15T07:12:40.969Z,8.00
2023-02-15T07:13:41.174Z,8.40
2023-02-15T07:14:40.846Z,25.90
2023-02-15T07:15:41.073Z,9.60
2023-02-15T07:16:41.233Z,8.90
2023-02-15T07:17:40.913Z,6.10
2023-02-15T07:18:42.577Z,5.70
2023-02-15T07:19:41.322Z,4.60
2023-02-15T07:20:41.037Z,10.00
2023-02-15T07:21:41.214Z,8.90
2023-02-15T07:22:40.911Z,5.40
2023-02-15T07:23:42.554Z,5.10
2023-02-15T07:24:41.291Z,12.40
2023-02-15T07:25:40.973Z,16.90
2023-02-15T07:26:41.172Z,13.50
2023-02-15T07:27:39.480Z,10.80
2023-02-15T07:28:39.559Z,4.90
2023-02-15T07:29:41.170Z,11.20
2023-02-15T07:30:39.559Z,12.10
2023-02-15T07:31:39.526Z,8.00
2023-02-15T07:32:39.637Z,8.00
2023-02-15T07:33:39.566Z,22.70
2023-02-15T07:34:42.713Z,13.00
2023-02-15T07:35:39.596Z,7.30
2023-02-15T07:36:41.282Z,14.40
2023-02-15T07:37:41.471Z,17.80
2023-02-15T07:38:41.191Z,17.20
2023-02-15T07:39:41.497Z,10.20
2023-02-15T07:40:41.565Z,3.10
2023-02-15T07:41:41.217Z,5.60
2023-02-15T07:42:41.420Z,9.90
2023-02-15T07:43:41.592Z,9.10
2023-02-15T07:44:41.396Z,12.30
2023-02-15T07:45:39.733Z,10.70
2023-02-15T07:46:41.477Z,12.50
2023-02-15T07:47:39.789Z,7.70
2023-02-15T07:48:39.792Z,19.60
2023-02-15T07:49:39.817Z,9.40
2023-02-15T07:50:39.837Z,8.30
2023-02-15T07:51:41.523Z,8.80
2023-02-15T07:52:39.864Z,4.60
2023-02-15T07:53:39.880Z,5.20
2023-02-15T07:54:41.573Z,7.30
2023-02-15T07:55:39.904Z,6.90
2023-02-15T07:56:39.933Z,5.00
2023-02-15T07:57:39.930Z,5.70
2023-02-15T07:58:39.944Z,5.80
2023-02-15T07:59:39.957Z,5.70
2023-02-15T08:00:41.699Z,22.60
2023-02-15T08:01:39.977Z,6.00
2023-02-15T08:02:41.707Z,5.50
2023-02-15T08:03:40.081Z,24.90
2023-02-15T08:04:40.017Z,26.70
2023-02-15T08:05:40.030Z,15.00
2023-02-15T08:06:40.061Z,12.20
2023-02-15T08:07:41.734Z,7.80
2023-02-15T08:08:40.112Z,22.30
2023-02-15T08:09:40.106Z,27.20
2023-02-15T08:10:40.117Z,30.60
2023-02-15T08:11:41.896Z,27.60
2023-02-15T08:12:40.186Z,41.50
2023-02-15T08:13:40.165Z,24.80
2023-02-15T08:14:40.217Z,25.10
2023-02-15T08:15:40.193Z,24.80
2023-02-15T08:16:41.924Z,17.10
2023-02-15T08:17:40.224Z,40.60
2023-02-15T08:18:40.237Z,25.60
2023-02-15T08:19:40.232Z,26.80
2023-02-15T08:20:40.275Z,6.90
2023-02-15T08:21:43.409Z,5.30
2023-02-15T08:22:40.291Z,4.60
2023-02-15T08:23:40.297Z,11.90
2023-02-15T08:24:41.246Z,15.30
2023-02-15T08:25:41.149Z,28.60
2023-02-15T08:26:42.169Z,33.30
2023-02-15T08:27:42.062Z,32.10
2023-02-15T08:28:40.368Z,26.50
2023-02-15T08:29:40.593Z,21.20
2023-02-15T08:30:40.406Z,13.50
2023-02-15T08:31:40.490Z,21.20
2023-02-15T08:32:43.082Z,30.10
2023-02-15T08:33:40.453Z,27.10
2023-02-15T08:34:40.489Z,32.30
2023-02-15T08:35:40.483Z,16.70
2023-02-15T08:36:40.514Z,16.50
2023-02-15T08:37:42.197Z,6.40
2023-02-15T08:38:40.556Z,24.40
2023-02-15T08:39:40.575Z,4.20
2023-02-15T08:40:40.624Z,23.70
2023-02-15T08:41:42.241Z,2.60
2023-02-15T08:42:43.469Z,4.70
2023-02-15T08:43:42.163Z,7.30
2023-02-15T08:44:42.368Z,2.00
2023-02-15T08:45:42.579Z,9.90
2023-02-15T08:46:42.218Z,9.90
2023-02-15T08:47:42.425Z,4.80
2023-02-15T08:48:42.597Z,7.40
2023-02-15T08:49:42.273Z,3.70
2023-02-15T08:50:42.468Z,8.30
2023-02-15T08:51:42.653Z,8.60
2023-02-15T08:52:42.311Z,5.50
2023-02-15T08:53:42.605Z,3.80
2023-02-15T08:54:40.783Z,9.70
2023-02-15T08:55:40.794Z,6.00
2023-02-15T08:56:42.481Z,8.90
2023-02-15T08:57:40.830Z,12.00
2023-02-15T08:58:40.855Z,3.10
2023-02-15T08:59:42.543Z,6.20
2023-02-15T09:00:40.896Z,8.80
2023-02-15T09:01:40.923Z,6.90
2023-02-15T09:02:40.994Z,7.10
2023-02-15T09:03:40.911Z,2.00
2023-02-15T09:04:42.618Z,10.70
2023-02-15T09:05:40.941Z,3.40
2023-02-15T09:06:40.966Z,5.30
2023-02-15T09:07:40.973Z,5.60
2023-02-15T09:08:40.986Z,7.70
2023-02-15T09:09:44.136Z,8.30
2023-02-15T09:10:41.026Z,15.50
2023-02-15T09:11:41.035Z,4.30
2023-02-15T09:12:41.037Z,3.80
2023-02-15T09:13:42.740Z,6.40
2023-02-15T09:14:44.383Z,9.40
2023-02-15T09:15:42.585Z,4.40
2023-02-15T09:16:42.811Z,3.70
2023-02-15T09:17:42.952Z,5.10
2023-02-15T09:18:43.136Z,12.50
2023-02-15T09:19:42.850Z,4.20
2023-02-15T09:20:42.984Z,4.80
2023-02-15T09:21:42.700Z,14.60
2023-02-15T09:22:42.815Z,9.00
2023-02-15T09:23:42.971Z,8.40
2023-02-15T09:24:43.145Z,4.30
2023-02-15T09:25:42.828Z,6.10
2023-02-15T09:26:43.008Z,7.80
2023-02-15T09:27:43.164Z,5.90
2023-02-15T09:28:42.860Z,3.20
2023-02-15T09:29:43.038Z,5.20
2023-02-15T09:30:43.313Z,13.90
2023-02-15T09:31:42.929Z,9.00
2023-02-15T09:32:43.081Z,2.50
2023-02-15T09:33:43.293Z,12.80
2023-02-15T09:34:43.014Z,5.50
2023-02-15T09:35:44.110Z,6.10
2023-02-15T09:36:43.356Z,3.00
2023-02-15T09:37:41.380Z,11.00
2023-02-15T09:38:41.390Z,31.60
2023-02-15T09:39:41.407Z,12.60
2023-02-15T09:40:41.542Z,7.40
2023-02-15T09:41:43.100Z,13.10
2023-02-15T09:42:41.452Z,11.00
2023-02-15T09:43:41.470Z,8.60
2023-02-15T09:44:41.486Z,8.40
2023-02-15T09:45:43.226Z,12.70
2023-02-15T09:46:41.512Z,3.70
2023-02-15T09:47:41.522Z,5.90
2023-02-15T09:48:41.541Z,5.10
2023-02-15T09:49:41.545Z,11.10
2023-02-15T09:50:41.567Z,6.80
2023-02-15T09:51:44.701Z,6.40
2023-02-15T09:52:41.615Z,2.20
2023-02-15T09:53:41.614Z,6.70
2023-02-15T09:54:41.642Z,4.00
2023-02-15T09:55:41.644Z,7.60
2023-02-15T09:56:43.687Z,8.40
2023-02-15T09:57:41.665Z,22.30
2023-02-15T09:58:42.642Z,5.20
2023-02-15T09:59:41.705Z,4.00
2023-02-15T10:00:41.735Z,1.60
2023-02-15T10:01:43.587Z,5.10
2023-02-15T10:02:41.759Z,3.40
2023-02-15T10:03:41.782Z,2.20
2023-02-15T10:04:41.834Z,2.60
2023-02-15T10:05:41.821Z,5.80
2023-02-15T10:06:43.499Z,5.20
2023-02-15T10:07:42.000Z,17.20
2023-02-15T10:08:41.871Z,4.80
2023-02-15T10:09:41.866Z,4.90
2023-02-15T10:10:41.956Z,12.30
2023-02-15T10:11:43.578Z,5.10
2023-02-15T10:12:42.919Z,7.90
2023-02-15T10:13:41.932Z,4.30
2023-02-15T10:14:41.950Z,5.90
2023-02-15T10:15:41.958Z,11.10
2023-02-15T10:16:43.689Z,7.90
2023-02-15T10:17:41.985Z,4.90
2023-02-15T10:18:45.140Z,9.50
2023-02-15T10:19:42.003Z,3.40
2023-02-15T10:20:43.713Z,2.80
2023-02-15T10:21:43.888Z,3.40
2023-02-15T10:22:42.061Z,6.50
2023-02-15T10:23:43.874Z,2.60
2023-02-15T10:24:45.508Z,2.80
2023-02-15T10:25:43.128Z,17.80
2023-02-15T10:26:43.793Z,6.60
2023-02-15T10:27:43.965Z,4.90
2023-02-15T10:28:43.662Z,5.10
2023-02-15T10:29:43.872Z,12.40
2023-02-15T10:30:44.190Z,20.50
2023-02-15T10:31:43.853Z,27.10
2023-02-15T10:32:43.937Z,3.80
2023-02-15T10:33:44.310Z,3.60
2023-02-15T10:34:43.828Z,5.00
2023-02-15T10:35:44.016Z,4.10
2023-02-15T10:36:44.197Z,7.00
2023-02-15T10:37:43.898Z,7.50
2023-02-15T10:38:44.079Z,14.40
2023-02-15T10:39:45.729Z,7.90
2023-02-15T10:40:43.967Z,21.20
2023-02-15T10:41:42.341Z,15.50
2023-02-15T10:42:42.368Z,20.90
2023-02-15T10:43:42.561Z,13.30
2023-02-15T10:44:44.061Z,16.50
2023-02-15T10:45:42.421Z,4.70
2023-02-15T10:46:42.454Z,7.10
2023-02-15T10:47:42.481Z,5.50
2023-02-15T10:48:44.136Z,11.50
2023-02-15T10:49:45.777Z,3.50
2023-02-15T10:50:44.016Z,6.20
2023-02-15T10:51:44.195Z,1.90
2023-02-15T10:52:44.395Z,2.80
2023-02-15T10:53:44.091Z,16.90
2023-02-15T10:54:44.256Z,5.00
2023-02-15T10:55:44.454Z,10.60
2023-02-15T10:56:44.146Z,10.40
2023-02-15T10:57:44.321Z,24.30
2023-02-15T10:58:44.528Z,21.10
2023-02-15T10:59:44.209Z,13.30
2023-02-15T11:00:45.886Z,3.30
2023-02-15T11:01:44.636Z,16.60
2023-02-15T11:02:44.308Z,10.90
2023-02-15T11:03:44.454Z,4.10
2023-02-15T11:04:44.658Z,4.00
2023-02-15T11:05:44.323Z,8.60
2023-02-15T11:06:44.477Z,2.80
2023-02-15T11:07:44.646Z,12.30
2023-02-15T11:08:42.730Z,4.30
2023-02-15T11:09:42.740Z,3.40
2023-02-15T11:10:42.753Z,6.90
2023-02-15T11:11:42.760Z,3.20
2023-02-15T11:12:44.452Z,4.10
2023-02-15T11:13:42.915Z,15.00
2023-02-15T11:14:42.816Z,5.50
2023-02-15T11:15:44.596Z,9.30
2023-02-15T11:16:42.860Z,19.30
2023-02-15T11:17:42.861Z,19.30
2023-02-15T11:18:42.901Z,5.40
2023-02-15T11:19:42.892Z,4.80
2023-02-15T11:20:44.589Z,2.10
2023-02-15T11:21:42.915Z,3.00
2023-02-15T11:22:42.931Z,6.60
2023-02-15T11:23:42.937Z,3.90
2023-02-15T11:24:43.063Z,8.50
2023-02-15T11:25:44.649Z,4.40
2023-02-15T11:26:43.080Z,5.90
2023-02-15T11:27:43.068Z,8.20
2023-02-15T11:28:43.023Z,21.30
2023-02-15T11:29:43.033Z,11.50
2023-02-15T11:30:43.048Z,8.80
2023-02-15T11:31:44.826Z,16.30
2023-02-15T11:32:43.053Z,6.70
2023-02-15T11:33:43.077Z,7.90
2023-02-15T11:34:43.082Z,16.20
2023-02-15T11:35:43.093Z,20.60
2023-02-15T11:36:44.780Z,19.40
2023-02-15T11:37:43.150Z,8.80
2023-02-15T11:38:43.151Z,6.20
2023-02-15T11:39:43.157Z,11.90
2023-02-15T11:40:43.169Z,13.70
2023-02-15T11:41:44.860Z,15.00
2023-02-15T11:42:43.201Z,17.70
2023-02-15T11:43:44.896Z,17.60
2023-02-15T11:44:43.233Z,9.40
2023-02-15T11:45:43.269Z,17.70
2023-02-15T11:46:43.366Z,13.90
2023-02-15T11:47:44.287Z,6.20
2023-02-15T11:48:45.931Z,1.40
2023-02-15T11:49:43.301Z,1.40
2023-02-15T11:50:43.312Z,4.60
2023-02-15T11:51:43.338Z,3.60
2023-02-15T11:52:43.634Z,3.30
2023-02-15T11:53:45.065Z,3.50
2023-02-15T11:54:43.528Z,5.60
2023-02-15T11:55:43.409Z,1.20
2023-02-15T11:56:43.434Z,2.00
2023-02-15T11:57:45.119Z,2.30
2023-02-15T11:58:43.448Z,2.80
2023-02-15T11:59:43.508Z,5.60
2023-02-15T12:00:43.485Z,2.90
2023-02-15T12:01:45.183Z,7.80
2023-02-15T12:02:45.404Z,3.90
2023-02-15T12:03:45.091Z,2.10
2023-02-15T12:04:43.534Z,13.10
2023-02-15T12:05:45.219Z,3.30
2023-02-15T12:06:43.570Z,16.80
2023-02-15T12:07:45.251Z,9.10
2023-02-15T12:08:46.413Z,6.30
2023-02-15T12:09:43.620Z,13.80
2023-02-15T12:10:45.311Z,7.50
2023-02-15T12:11:45.511Z,5.40
2023-02-15T12:12:45.191Z,7.90
2023-02-15T12:13:45.382Z,19.20
2023-02-15T12:14:45.575Z,16.00
2023-02-15T12:15:45.322Z,19.90
2023-02-15T12:16:45.490Z,17.60
2023-02-15T12:17:43.738Z,12.40
2023-02-15T12:18:45.521Z,6.40
2023-02-15T12:19:43.759Z,5.40
2023-02-15T12:20:43.779Z,3.70
2023-02-15T12:21:43.789Z,3.80
2023-02-15T12:22:45.472Z,12.80
2023-02-15T12:23:45.679Z,4.30
2023-02-15T12:24:46.320Z,3.10
2023-02-15T12:25:45.547Z,11.00
2023-02-15T12:26:45.732Z,11.50
2023-02-15T12:27:45.441Z,3.70
2023-02-15T12:28:45.644Z,6.40
2023-02-15T12:29:45.918Z,2.70
2023-02-15T12:30:45.516Z,8.60
2023-02-15T12:31:45.835Z,6.90
2023-02-15T12:32:45.862Z,8.40
2023-02-15T12:33:45.546Z,9.90
2023-02-15T12:34:45.742Z,2.80
2023-02-15T12:35:45.937Z,9.90
2023-02-15T12:36:45.604Z,5.90
2023-02-15T12:37:45.774Z,5.00
2023-02-15T12:38:45.954Z,1.90
2023-02-15T12:39:45.649Z,3.90
2023-02-15T12:40:46.792Z,5.30
2023-02-15T12:41:46.054Z,8.40
2023-02-15T12:42:45.088Z,6.30
2023-02-15T12:43:45.805Z,5.30
2023-02-15T12:44:45.977Z,4.10
2023-02-15T12:45:44.172Z,4.50
2023-02-15T12:46:45.860Z,4.50
2023-02-15T12:47:44.158Z,3.90
2023-02-15T12:48:44.173Z,4.00
2023-02-15T12:49:48.689Z,3.00
2023-02-15T12:50:46.055Z,4.20
2023-02-15T12:51:44.216Z,3.10
2023-02-15T12:52:44.223Z,6.80
2023-02-15T12:53:45.921Z,3.50
2023-02-15T12:54:46.090Z,12.20
2023-02-15T12:55:46.285Z,10.90
2023-02-15T12:56:46.939Z,4.30
2023-02-15T12:57:46.191Z,16.40
2023-02-15T12:58:45.883Z,16.80
2023-02-15T12:59:44.766Z,16.10
2023-02-15T13:00:46.075Z,5.80
2023-02-15T13:01:46.439Z,11.00
2023-02-15T13:02:45.928Z,7.30
2023-02-15T13:03:46.126Z,4.60
2023-02-15T13:04:46.303Z,4.10
2023-02-15T13:05:45.993Z,5.70
2023-02-15T13:06:46.317Z,6.10